sensor_id;sensor_type;location;lat;lon;timestamp;P1;durP1;ratioP1;P2;durP2;ratioP2
43823;SDS011;29470;53.550;9.926;2022-09-17T00:04:06;21.23;;;2.75;;
43823;SDS011;29470;53.550;9.926;2022-09-17T00:09:11;17.98;;;3.92;;
43823;SDS011;29470;53.550;9.926;2022-09-17T00:14:14;17.25;;;2.70;;
43823;SDS011;29470;53.550;9.926;2022-09-17T00:19:20;21.77;;;2.95;;
43823;SDS011;29470;53.550;9.926;2022-09-17T00:24:24;20.52;;;3.15;;
43823;SDS011;29470;53.550;9.926;2022-09-17T00:29:27;15.75;;;2.50;;
43823;SDS011;29470;53.550;9.926;2022-09-17T00:34:31;15.90;;;2.90;;
43823;SDS011;29470;53.550;9.926;2022-09-17T00:39:34;12.40;;;2.30;;
43823;SDS011;29470;53.550;9.926;2022-09-17T00:44:42;20.75;;;3.08;;
43823;SDS011;29470;53.550;9.926;2022-09-17T00:49:50;21.10;;;2.70;;
43823;SDS011;29470;53.550;9.926;2022-09-17T01:00:07;20.92;;;2.88;;
43823;SDS011;29470;53.550;9.926;2022-09-17T01:05:12;15.68;;;3.00;;
43823;SDS011;29470;53.550;9.926;2022-09-17T01:10:19;17.27;;;2.88;;
43823;SDS011;29470;53.550;9.926;2022-09-17T01:15:34;16.52;;;2.83;;
43823;SDS011;29470;53.550;9.926;2022-09-17T01:20:48;20.33;;;2.63;;
43823;SDS011;29470;53.550;9.926;2022-09-17T01:26:22;22.85;;;3.00;;
43823;SDS011;29470;53.550;9.926;2022-09-17T01:31:40;15.82;;;2.72;;
43823;SDS011;29470;53.550;9.926;2022-09-17T01:36:54;13.57;;;2.10;;
43823;SDS011;29470;53.550;9.926;2022-09-17T01:42:06;11.63;;;2.80;;
43823;SDS011;29470;53.550;9.926;2022-09-17T01:47:20;17.48;;;2.33;;
43823;SDS011;29470;53.550;9.926;2022-09-17T01:52:25;17.33;;;2.57;;
43823;SDS011;29470;53.550;9.926;2022-09-17T01:57:31;14.02;;;2.08;;
43823;SDS011;29470;53.550;9.926;2022-09-17T02:02:40;17.42;;;2.53;;
43823;SDS011;29470;53.550;9.926;2022-09-17T02:07:49;19.98;;;2.97;;
43823;SDS011;29470;53.550;9.926;2022-09-17T02:12:56;16.90;;;2.55;;
43823;SDS011;29470;53.550;9.926;2022-09-17T02:18:05;18.63;;;2.10;;
43823;SDS011;29470;53.550;9.926;2022-09-17T02:23:17;15.18;;;2.63;;
43823;SDS011;29470;53.550;9.926;2022-09-17T02:28:32;18.45;;;2.15;;
43823;SDS011;29470;53.550;9.926;2022-09-17T02:33:46;16.15;;;1.88;;
43823;SDS011;29470;53.550;9.926;2022-09-17T02:38:53;17.02;;;2.38;;
43823;SDS011;29470;53.550;9.926;2022-09-17T02:44:01;15.75;;;2.30;;
43823;SDS011;29470;53.550;9.926;2022-09-17T02:49:19;18.27;;;2.90;;
43823;SDS011;29470;53.550;9.926;2022-09-17T02:54:37;14.90;;;3.00;;
43823;SDS011;29470;53.550;9.926;2022-09-17T02:59:46;14.75;;;2.47;;
43823;SDS011;29470;53.550;9.926;2022-09-17T03:04:57;11.75;;;2.30;;
43823;SDS011;29470;53.550;9.926;2022-09-17T03:10:02;18.00;;;3.28;;
43823;SDS011;29470;53.550;9.926;2022-09-17T03:15:06;16.13;;;2.10;;
43823;SDS011;29470;53.550;9.926;2022-09-17T03:20:11;11.10;;;2.45;;
43823;SDS011;29470;53.550;9.926;2022-09-17T03:25:16;12.98;;;1.98;;
43823;SDS011;29470;53.550;9.926;2022-09-17T03:30:19;15.43;;;2.38;;
43823;SDS011;29470;53.550;9.926;2022-09-17T03:35:23;12.57;;;2.20;;
43823;SDS011;29470;53.550;9.926;2022-09-17T03:40:26;10.38;;;2.10;;
43823;SDS011;29470;53.550;9.926;2022-09-17T03:45:29;17.85;;;2.53;;
43823;SDS011;29470;53.550;9.926;2022-09-17T03:50:33;15.48;;;2.92;;
43823;SDS011;29470;53.550;9.926;2022-09-17T03:55:36;10.95;;;2.17;;
43823;SDS011;29470;53.550;9.926;2022-09-17T04:00:39;9.38;;;1.45;;
43823;SDS011;29470;53.550;9.926;2022-09-17T04:05:44;8.20;;;1.27;;
43823;SDS011;29470;53.550;9.926;2022-09-17T04:10:47;10.52;;;1.63;;
43823;SDS011;29470;53.550;9.926;2022-09-17T04:15:50;9.75;;;1.60;;
43823;SDS011;29470;53.550;9.926;2022-09-17T04:20:54;9.73;;;2.97;;
43823;SDS011;29470;53.550;9.926;2022-09-17T04:25:57;13.07;;;1.55;;
43823;SDS011;29470;53.550;9.926;2022-09-17T04:31:02;12.18;;;1.75;;
43823;SDS011;29470;53.550;9.926;2022-09-17T04:36:06;14.50;;;1.90;;
43823;SDS011;29470;53.550;9.926;2022-09-17T04:41:09;12.35;;;1.70;;
43823;SDS011;29470;53.550;9.926;2022-09-17T04:46:12;13.52;;;1.80;;
43823;SDS011;29470;53.550;9.926;2022-09-17T04:51:18;9.52;;;1.77;;
43823;SDS011;29470;53.550;9.926;2022-09-17T04:56:21;11.50;;;1.48;;
43823;SDS011;29470;53.550;9.926;2022-09-17T05:01:24;9.70;;;1.90;;
43823;SDS011;29470;53.550;9.926;2022-09-17T05:06:29;16.33;;;1.98;;
43823;SDS011;29470;53.550;9.926;2022-09-17T05:11:31;10.65;;;1.88;;
43823;SDS011;29470;53.550;9.926;2022-09-17T05:16:34;13.02;;;2.03;;
43823;SDS011;29470;53.550;9.926;2022-09-17T05:21:38;10.02;;;1.42;;
43823;SDS011;29470;53.550;9.926;2022-09-17T05:26:41;9.18;;;1.70;;
43823;SDS011;29470;53.550;9.926;2022-09-17T05:31:44;8.60;;;2.00;;
43823;SDS011;29470;53.550;9.926;2022-09-17T05:36:48;12.93;;;2.08;;
43823;SDS011;29470;53.550;9.926;2022-09-17T05:41:52;13.30;;;2.22;;
43823;SDS011;29470;53.550;9.926;2022-09-17T05:46:55;15.05;;;2.13;;
43823;SDS011;29470;53.550;9.926;2022-09-17T05:51:59;11.52;;;1.85;;
43823;SDS011;29470;53.550;9.926;2022-09-17T05:57:04;9.82;;;1.80;;
43823;SDS011;29470;53.550;9.926;2022-09-17T06:02:08;8.43;;;1.58;;
43823;SDS011;29470;53.550;9.926;2022-09-17T06:07:15;12.45;;;1.90;;
43823;SDS011;29470;53.550;9.926;2022-09-17T06:12:17;13.20;;;1.80;;
43823;SDS011;29470;53.550;9.926;2022-09-17T06:17:20;9.95;;;2.28;;
43823;SDS011;29470;53.550;9.926;2022-09-17T06:22:25;15.27;;;2.25;;
43823;SDS011;29470;53.550;9.926;2022-09-17T06:27:29;11.70;;;1.70;;
43823;SDS011;29470;53.550;9.926;2022-09-17T06:32:33;17.60;;;2.47;;
43823;SDS011;29470;53.550;9.926;2022-09-17T06:37:37;11.45;;;1.38;;
43823;SDS011;29470;53.550;9.926;2022-09-17T06:42:41;7.93;;;1.30;;
43823;SDS011;29470;53.550;9.926;2022-09-17T06:47:43;7.03;;;1.13;;
43823;SDS011;29470;53.550;9.926;2022-09-17T06:52:48;6.95;;;1.85;;
43823;SDS011;29470;53.550;9.926;2022-09-17T06:57:51;4.45;;;0.90;;
43823;SDS011;29470;53.550;9.926;2022-09-17T07:02:54;6.55;;;1.35;;
43823;SDS011;29470;53.550;9.926;2022-09-17T07:08:00;4.32;;;0.90;;
43823;SDS011;29470;53.550;9.926;2022-09-17T07:13:04;3.17;;;0.90;;
43823;SDS011;29470;53.550;9.926;2022-09-17T07:18:07;2.35;;;0.70;;
43823;SDS011;29470;53.550;9.926;2022-09-17T07:23:12;3.75;;;0.85;;
43823;SDS011;29470;53.550;9.926;2022-09-17T07:28:15;4.85;;;1.02;;
43823;SDS011;29470;53.550;9.926;2022-09-17T07:33:18;7.30;;;1.08;;
43823;SDS011;29470;53.550;9.926;2022-09-17T07:38:25;5.13;;;1.00;;
43823;SDS011;29470;53.550;9.926;2022-09-17T07:43:29;6.72;;;1.30;;
43823;SDS011;29470;53.550;9.926;2022-09-17T07:48:33;6.30;;;1.38;;
43823;SDS011;29470;53.550;9.926;2022-09-17T07:53:37;6.85;;;1.30;;
43823;SDS011;29470;53.550;9.926;2022-09-17T07:58:40;10.18;;;1.40;;
43823;SDS011;29470;53.550;9.926;2022-09-17T08:03:46;9.10;;;1.65;;
43823;SDS011;29470;53.550;9.926;2022-09-17T08:08:52;11.73;;;1.60;;
43823;SDS011;29470;53.550;9.926;2022-09-17T08:13:55;7.93;;;1.42;;
43823;SDS011;29470;53.550;9.926;2022-09-17T08:18:58;6.05;;;1.20;;
43823;SDS011;29470;53.550;9.926;2022-09-17T08:24:03;9.43;;;1.35;;
43823;SDS011;29470;53.550;9.926;2022-09-17T08:29:06;6.72;;;1.30;;
43823;SDS011;29470;53.550;9.926;2022-09-17T08:34:11;9.65;;;1.58;;
43823;SDS011;29470;53.550;9.926;2022-09-17T08:39:16;8.48;;;1.55;;
43823;SDS011;29470;53.550;9.926;2022-09-17T08:44:21;5.00;;;1.17;;
43823;SDS011;29470;53.550;9.926;2022-09-17T08:54:35;5.97;;;1.05;;
43823;SDS011;29470;53.550;9.926;2022-09-17T08:59:44;4.40;;;1.20;;
43823;SDS011;29470;53.550;9.926;2022-09-17T09:05:04;3.15;;;0.93;;
43823;SDS011;29470;53.550;9.926;2022-09-17T09:10:17;4.88;;;0.80;;
43823;SDS011;29470;53.550;9.926;2022-09-17T09:15:28;6.13;;;1.25;;
43823;SDS011;29470;53.550;9.926;2022-09-17T09:20:39;6.22;;;1.38;;
43823;SDS011;29470;53.550;9.926;2022-09-17T09:25:52;3.35;;;0.60;;
43823;SDS011;29470;53.550;9.926;2022-09-17T09:31:01;8.15;;;0.95;;
43823;SDS011;29470;53.550;9.926;2022-09-17T09:36:10;3.42;;;0.55;;
43823;SDS011;29470;53.550;9.926;2022-09-17T09:41:18;2.58;;;0.35;;
43823;SDS011;29470;53.550;9.926;2022-09-17T09:46:39;1.13;;;0.40;;
43823;SDS011;29470;53.550;9.926;2022-09-17T09:51:58;1.40;;;0.60;;
43823;SDS011;29470;53.550;9.926;2022-09-17T09:57:12;3.22;;;0.57;;
43823;SDS011;29470;53.550;9.926;2022-09-17T10:02:18;2.40;;;0.70;;
43823;SDS011;29470;53.550;9.926;2022-09-17T10:07:22;3.25;;;0.70;;
43823;SDS011;29470;53.550;9.926;2022-09-17T10:12:26;2.97;;;0.70;;
43823;SDS011;29470;53.550;9.926;2022-09-17T10:17:29;3.90;;;0.60;;
43823;SDS011;29470;53.550;9.926;2022-09-17T10:22:32;3.42;;;0.93;;
43823;SDS011;29470;53.550;9.926;2022-09-17T10:27:38;6.60;;;1.23;;
43823;SDS011;29470;53.550;9.926;2022-09-17T10:33:09;3.72;;;0.70;;
43823;SDS011;29470;53.550;9.926;2022-09-17T10:38:25;6.10;;;0.80;;
43823;SDS011;29470;53.550;9.926;2022-09-17T10:43:31;2.00;;;0.70;;
43823;SDS011;29470;53.550;9.926;2022-09-17T10:48:36;2.60;;;0.90;;
43823;SDS011;29470;53.550;9.926;2022-09-17T10:53:53;4.43;;;0.80;;
43823;SDS011;29470;53.550;9.926;2022-09-17T11:05:03;2.65;;;0.80;;
43823;SDS011;29470;53.550;9.926;2022-09-17T11:10:25;2.65;;;0.80;;
43823;SDS011;29470;53.550;9.926;2022-09-17T11:15:35;5.15;;;1.05;;
43823;SDS011;29470;53.550;9.926;2022-09-17T11:21:01;5.07;;;1.48;;
43823;SDS011;29470;53.550;9.926;2022-09-17T11:26:18;5.05;;;1.10;;
43823;SDS011;29470;53.550;9.926;2022-09-17T11:31:33;4.28;;;1.00;;
43823;SDS011;29470;53.550;9.926;2022-09-17T11:36:47;5.10;;;1.15;;
43823;SDS011;29470;53.550;9.926;2022-09-17T11:41:56;3.15;;;0.98;;
43823;SDS011;29470;53.550;9.926;2022-09-17T11:47:06;6.70;;;1.10;;
43823;SDS011;29470;53.550;9.926;2022-09-17T11:52:13;4.25;;;0.80;;
43823;SDS011;29470;53.550;9.926;2022-09-17T11:57:24;5.05;;;1.45;;
43823;SDS011;29470;53.550;9.926;2022-09-17T12:02:32;4.07;;;0.98;;
43823;SDS011;29470;53.550;9.926;2022-09-17T12:07:46;7.30;;;3.20;;
43823;SDS011;29470;53.550;9.926;2022-09-17T12:12:55;5.13;;;1.20;;
43823;SDS011;29470;53.550;9.926;2022-09-17T12:18:19;4.10;;;1.17;;
43823;SDS011;29470;53.550;9.926;2022-09-17T12:23:37;8.48;;;1.20;;
43823;SDS011;29470;53.550;9.926;2022-09-17T12:28:47;5.97;;;1.50;;
43823;SDS011;29470;53.550;9.926;2022-09-17T12:34:00;7.38;;;1.40;;
43823;SDS011;29470;53.550;9.926;2022-09-17T12:39:28;6.50;;;1.30;;
43823;SDS011;29470;53.550;9.926;2022-09-17T12:44:55;5.95;;;1.50;;
43823;SDS011;29470;53.550;9.926;2022-09-17T12:50:18;5.43;;;1.83;;
43823;SDS011;29470;53.550;9.926;2022-09-17T12:55:36;4.75;;;1.30;;
43823;SDS011;29470;53.550;9.926;2022-09-17T13:00:46;9.70;;;2.20;;
43823;SDS011;29470;53.550;9.926;2022-09-17T13:06:03;6.40;;;1.70;;
43823;SDS011;29470;53.550;9.926;2022-09-17T13:17:09;5.22;;;1.20;;
43823;SDS011;29470;53.550;9.926;2022-09-17T13:22:21;7.80;;;1.88;;
43823;SDS011;29470;53.550;9.926;2022-09-17T13:27:31;6.70;;;1.33;;
43823;SDS011;29470;53.550;9.926;2022-09-17T13:32:41;5.75;;;1.33;;
43823;SDS011;29470;53.550;9.926;2022-09-17T13:37:53;4.95;;;1.58;;
43823;SDS011;29470;53.550;9.926;2022-09-17T13:43:04;4.97;;;1.88;;
43823;SDS011;29470;53.550;9.926;2022-09-17T13:48:11;5.25;;;1.10;;
43823;SDS011;29470;53.550;9.926;2022-09-17T13:53:23;7.18;;;1.38;;
43823;SDS011;29470;53.550;9.926;2022-09-17T13:58:29;5.00;;;1.10;;
43823;SDS011;29470;53.550;9.926;2022-09-17T14:03:52;7.03;;;1.58;;
43823;SDS011;29470;53.550;9.926;2022-09-17T14:08:57;7.18;;;1.20;;
43823;SDS011;29470;53.550;9.926;2022-09-17T14:19:31;4.13;;;0.85;;
43823;SDS011;29470;53.550;9.926;2022-09-17T14:24:38;4.43;;;1.30;;
43823;SDS011;29470;53.550;9.926;2022-09-17T14:30:04;5.35;;;1.88;;
43823;SDS011;29470;53.550;9.926;2022-09-17T14:35:15;3.13;;;0.80;;
43823;SDS011;29470;53.550;9.926;2022-09-17T14:40:22;2.33;;;0.50;;
43823;SDS011;29470;53.550;9.926;2022-09-17T14:45:26;2.42;;;0.77;;
43823;SDS011;29470;53.550;9.926;2022-09-17T14:50:32;4.35;;;0.77;;
43823;SDS011;29470;53.550;9.926;2022-09-17T14:55:38;6.45;;;1.52;;
43823;SDS011;29470;53.550;9.926;2022-09-17T15:05:53;3.22;;;0.88;;
43823;SDS011;29470;53.550;9.926;2022-09-17T15:10:56;4.18;;;1.08;;
43823;SDS011;29470;53.550;9.926;2022-09-17T15:16:02;4.45;;;1.50;;
43823;SDS011;29470;53.550;9.926;2022-09-17T15:21:17;6.80;;;1.45;;
43823;SDS011;29470;53.550;9.926;2022-09-17T15:26:31;7.25;;;1.10;;
43823;SDS011;29470;53.550;9.926;2022-09-17T15:31:37;5.93;;;1.65;;
43823;SDS011;29470;53.550;9.926;2022-09-17T15:36:41;4.13;;;1.13;;
43823;SDS011;29470;53.550;9.926;2022-09-17T15:42:12;4.63;;;0.85;;
43823;SDS011;29470;53.550;9.926;2022-09-17T15:47:36;3.25;;;0.75;;
43823;SDS011;29470;53.550;9.926;2022-09-17T15:53:09;3.40;;;0.90;;
43823;SDS011;29470;53.550;9.926;2022-09-17T15:58:21;2.92;;;0.80;;
43823;SDS011;29470;53.550;9.926;2022-09-17T16:03:49;2.67;;;0.70;;
43823;SDS011;29470;53.550;9.926;2022-09-17T16:14:47;3.35;;;0.52;;
43823;SDS011;29470;53.550;9.926;2022-09-17T16:19:52;1.67;;;0.70;;
43823;SDS011;29470;53.550;9.926;2022-09-17T16:24:57;2.42;;;1.10;;
43823;SDS011;29470;53.550;9.926;2022-09-17T16:30:00;1.85;;;0.77;;
43823;SDS011;29470;53.550;9.926;2022-09-17T16:35:05;2.15;;;0.85;;
43823;SDS011;29470;53.550;9.926;2022-09-17T16:40:11;5.88;;;1.25;;
43823;SDS011;29470;53.550;9.926;2022-09-17T16:45:14;4.80;;;1.75;;
43823;SDS011;29470;53.550;9.926;2022-09-17T16:50:17;6.45;;;1.85;;
43823;SDS011;29470;53.550;9.926;2022-09-17T16:55:21;4.60;;;1.33;;
43823;SDS011;29470;53.550;9.926;2022-09-17T17:00:24;5.75;;;1.75;;
43823;SDS011;29470;53.550;9.926;2022-09-17T17:05:27;5.03;;;1.38;;
43823;SDS011;29470;53.550;9.926;2022-09-17T17:10:33;5.15;;;1.13;;
43823;SDS011;29470;53.550;9.926;2022-09-17T17:15:38;3.47;;;1.10;;
43823;SDS011;29470;53.550;9.926;2022-09-17T17:20:42;4.20;;;1.27;;
43823;SDS011;29470;53.550;9.926;2022-09-17T17:25:46;4.47;;;1.30;;
43823;SDS011;29470;53.550;9.926;2022-09-17T17:30:49;4.15;;;1.05;;
43823;SDS011;29470;53.550;9.926;2022-09-17T17:35:52;5.80;;;1.33;;
43823;SDS011;29470;53.550;9.926;2022-09-17T17:41:03;3.67;;;1.00;;
43823;SDS011;29470;53.550;9.926;2022-09-17T17:46:07;5.13;;;1.88;;
43823;SDS011;29470;53.550;9.926;2022-09-17T17:51:11;3.88;;;1.08;;
43823;SDS011;29470;53.550;9.926;2022-09-17T17:56:17;4.45;;;1.60;;
43823;SDS011;29470;53.550;9.926;2022-09-17T18:01:22;4.55;;;1.40;;
43823;SDS011;29470;53.550;9.926;2022-09-17T18:06:26;7.80;;;1.70;;
43823;SDS011;29470;53.550;9.926;2022-09-17T18:11:31;4.20;;;1.27;;
43823;SDS011;29470;53.550;9.926;2022-09-17T18:16:35;5.85;;;2.17;;
43823;SDS011;29470;53.550;9.926;2022-09-17T18:21:38;3.42;;;1.30;;
43823;SDS011;29470;53.550;9.926;2022-09-17T18:26:43;4.57;;;1.40;;
43823;SDS011;29470;53.550;9.926;2022-09-17T18:31:47;6.53;;;1.42;;
43823;SDS011;29470;53.550;9.926;2022-09-17T18:36:51;5.30;;;1.30;;
43823;SDS011;29470;53.550;9.926;2022-09-17T18:41:55;7.80;;;1.45;;
43823;SDS011;29470;53.550;9.926;2022-09-17T18:46:58;3.38;;;1.30;;
43823;SDS011;29470;53.550;9.926;2022-09-17T18:52:02;6.05;;;1.60;;
43823;SDS011;29470;53.550;9.926;2022-09-17T18:57:06;9.27;;;2.65;;
43823;SDS011;29470;53.550;9.926;2022-09-17T19:02:09;5.13;;;1.83;;
43823;SDS011;29470;53.550;9.926;2022-09-17T19:07:13;11.18;;;1.70;;
43823;SDS011;29470;53.550;9.926;2022-09-17T19:12:17;11.27;;;2.30;;
43823;SDS011;29470;53.550;9.926;2022-09-17T19:17:20;8.70;;;1.63;;
43823;SDS011;29470;53.550;9.926;2022-09-17T19:22:23;9.50;;;1.90;;
43823;SDS011;29470;53.550;9.926;2022-09-17T19:27:27;16.73;;;2.72;;
43823;SDS011;29470;53.550;9.926;2022-09-17T19:32:31;16.73;;;2.25;;
43823;SDS011;29470;53.550;9.926;2022-09-17T19:37:34;11.98;;;1.70;;
43823;SDS011;29470;53.550;9.926;2022-09-17T19:42:38;15.75;;;2.35;;
43823;SDS011;29470;53.550;9.926;2022-09-17T19:47:41;7.25;;;1.80;;
43823;SDS011;29470;53.550;9.926;2022-09-17T19:52:44;6.78;;;1.60;;
43823;SDS011;29470;53.550;9.926;2022-09-17T19:57:49;13.77;;;2.95;;
43823;SDS011;29470;53.550;9.926;2022-09-17T20:02:52;13.25;;;2.08;;
43823;SDS011;29470;53.550;9.926;2022-09-17T20:07:55;10.00;;;1.73;;
43823;SDS011;29470;53.550;9.926;2022-09-17T20:12:59;8.32;;;1.70;;
43823;SDS011;29470;53.550;9.926;2022-09-17T20:18:02;18.88;;;5.57;;
43823;SDS011;29470;53.550;9.926;2022-09-17T20:23:05;8.48;;;1.70;;
43823;SDS011;29470;53.550;9.926;2022-09-17T20:28:10;12.52;;;2.25;;
43823;SDS011;29470;53.550;9.926;2022-09-17T20:33:13;15.63;;;2.63;;
43823;SDS011;29470;53.550;9.926;2022-09-17T20:38:16;6.10;;;1.50;;
43823;SDS011;29470;53.550;9.926;2022-09-17T20:43:40;9.18;;;2.08;;
43823;SDS011;29470;53.550;9.926;2022-09-17T20:48:44;7.85;;;1.52;;
43823;SDS011;29470;53.550;9.926;2022-09-17T20:53:48;8.48;;;1.33;;
43823;SDS011;29470;53.550;9.926;2022-09-17T20:58:53;11.13;;;1.80;;
43823;SDS011;29470;53.550;9.926;2022-09-17T21:04:05;9.05;;;1.58;;
43823;SDS011;29470;53.550;9.926;2022-09-17T21:09:11;8.77;;;1.40;;
43823;SDS011;29470;53.550;9.926;2022-09-17T21:14:18;9.48;;;2.17;;
43823;SDS011;29470;53.550;9.926;2022-09-17T21:19:21;7.97;;;1.67;;
43823;SDS011;29470;53.550;9.926;2022-09-17T21:24:25;10.15;;;1.42;;
43823;SDS011;29470;53.550;9.926;2022-09-17T21:29:29;13.10;;;1.65;;
43823;SDS011;29470;53.550;9.926;2022-09-17T21:34:32;12.32;;;2.00;;
43823;SDS011;29470;53.550;9.926;2022-09-17T21:39:35;10.73;;;2.08;;
43823;SDS011;29470;53.550;9.926;2022-09-17T21:44:39;9.82;;;1.70;;
43823;SDS011;29470;53.550;9.926;2022-09-17T21:49:42;8.88;;;1.80;;
43823;SDS011;29470;53.550;9.926;2022-09-17T21:54:45;7.57;;;1.52;;
43823;SDS011;29470;53.550;9.926;2022-09-17T21:59:49;6.13;;;1.30;;
43823;SDS011;29470;53.550;9.926;2022-09-17T22:04:52;6.78;;;1.60;;
43823;SDS011;29470;53.550;9.926;2022-09-17T22:09:54;9.35;;;1.42;;
43823;SDS011;29470;53.550;9.926;2022-09-17T22:14:59;6.38;;;1.10;;
43823;SDS011;29470;53.550;9.926;2022-09-17T22:20:01;8.88;;;1.63;;
43823;SDS011;29470;53.550;9.926;2022-09-17T22:25:05;7.82;;;1.67;;
43823;SDS011;29470;53.550;9.926;2022-09-17T22:30:10;10.07;;;1.83;;
43823;SDS011;29470;53.550;9.926;2022-09-17T22:35:13;9.82;;;1.40;;
43823;SDS011;29470;53.550;9.926;2022-09-17T22:40:16;8.85;;;1.38;;
43823;SDS011;29470;53.550;9.926;2022-09-17T22:45:21;8.52;;;1.05;;
43823;SDS011;29470;53.550;9.926;2022-09-17T22:50:23;7.75;;;1.23;;
43823;SDS011;29470;53.550;9.926;2022-09-17T22:55:27;7.78;;;1.38;;
43823;SDS011;29470;53.550;9.926;2022-09-17T23:00:31;7.55;;;1.25;;
43823;SDS011;29470;53.550;9.926;2022-09-17T23:05:34;11.63;;;1.70;;
43823;SDS011;29470;53.550;9.926;2022-09-17T23:10:37;7.53;;;1.27;;
43823;SDS011;29470;53.550;9.926;2022-09-17T23:15:41;13.20;;;2.17;;
43823;SDS011;29470;53.550;9.926;2022-09-17T23:20:54;10.75;;;1.80;;
43823;SDS011;29470;53.550;9.926;2022-09-17T23:26:00;8.00;;;1.67;;
43823;SDS011;29470;53.550;9.926;2022-09-17T23:31:06;14.30;;;1.85;;
43823;SDS011;29470;53.550;9.926;2022-09-17T23:36:11;9.57;;;1.75;;
43823;SDS011;29470;53.550;9.926;2022-09-17T23:41:16;9.90;;;1.60;;
43823;SDS011;29470;53.550;9.926;2022-09-17T23:46:22;6.63;;;1.45;;
43823;SDS011;29470;53.550;9.926;2022-09-17T23:51:27;7.78;;;1.63;;
43823;SDS011;29470;53.550;9.926;2022-09-17T23:56:32;9.05;;;1.85;;
